Time;durP1;ratioP1;P1;durP2;ratioP2;P2;SDS_P1;SDS_P2;PMS_P1;PMS_P2;Temp;Humidity;BMP_temperature;BMP_pressure;BME280_temperature;BME280_humidity;BME280_pressure;Samples;Min_cycle;Max_cycle;Signal;HPM_P1;HPM_P2
2021/06/16 00:01:22;;;;;;;4.63;2.53;;;;;;;;;;5114306;28;20998;-59
2021/06/16 00:03:49;;;;;;;5.57;2.70;;;;;;;;;;5114170;28;20491;-60
2021/06/16 00:06:18;;;;;;;8.37;3.20;;;;;;;;;;5114549;28;20502;-58
2021/06/16 00:08:45;;;;;;;4.00;2.63;;;;;;;;;;5115030;28;20465;-59
2021/06/16 00:11:12;;;;;;;6.30;2.70;;;;;;;;;;5123692;28;20446;-58
2021/06/16 00:13:39;;;;;;;6.77;3.77;;;;;;;;;;5119565;28;20525;-58
2021/06/16 00:16:07;;;;;;;7.87;3.27;;;;;;;;;;5115217;28;20441;-59
2021/06/16 00:18:34;;;;;;;6.20;3.33;;;;;;;;;;5113960;28;20462;-58
2021/06/16 00:21:01;;;;;;;7.63;3.20;;;;;;;;;;5114565;28;20445;-58
2021/06/16 00:23:30;;;;;;;5.37;2.53;;;;;;;;;;5115682;28;20437;-58
2021/06/16 00:25:57;;;;;;;3.90;2.60;;;;;;;;;;5118486;28;20445;-58
2021/06/16 00:28:25;;;;;;;10.10;3.50;;;;;;;;;;5118066;28;20477;-59
2021/06/16 00:30:52;;;;;;;6.03;3.10;;;;;;;;;;5117725;28;20941;-59
2021/06/16 00:33:19;;;;;;;7.27;3.37;;;;;;;;;;5117591;28;20547;-59
2021/06/16 00:35:47;;;;;;;5.87;3.17;;;;;;;;;;5118080;28;20501;-58
2021/06/16 00:38:14;;;;;;;9.13;4.17;;;;;;;;;;5117736;28;20522;-59
2021/06/16 00:40:42;;;;;;;4.03;3.17;;;;;;;;;;5117795;28;20452;-59
2021/06/16 00:43:10;;;;;;;6.93;3.50;;;;;;;;;;5117551;28;20441;-59
2021/06/16 00:45:37;;;;;;;4.10;3.20;;;;;;;;;;5117614;28;20453;-59
2021/06/16 00:48:05;;;;;;;5.80;3.80;;;;;;;;;;5117634;28;20465;-59
2021/06/16 00:50:33;;;;;;;4.87;3.10;;;;;;;;;;5117621;28;20445;-59
2021/06/16 00:53:01;;;;;;;5.23;3.67;;;;;;;;;;5117488;28;20534;-59
2021/06/16 00:55:28;;;;;;;9.30;3.13;;;;;;;;;;5117450;28;20441;-59
2021/06/16 00:57:57;;;;;;;5.97;3.23;;;;;;;;;;5117299;28;20525;-58
2021/06/16 01:00:28;;;;;;;10.27;3.80;;;;;;;;;;5117182;28;20823;-58
2021/06/16 01:02:57;;;;;;;4.97;3.43;;;;;;;;;;5117503;28;20421;-58
2021/06/16 01:05:27;;;;;;;4.53;3.27;;;;;;;;;;5117013;28;20944;-59
2021/06/16 01:07:55;;;;;;;9.37;3.87;;;;;;;;;;5116865;28;21052;-59
2021/06/16 01:10:24;;;;;;;10.27;3.70;;;;;;;;;;5117291;28;20453;-58
2021/06/16 01:12:57;;;;;;;11.83;3.67;;;;;;;;;;5117124;28;20522;-59
2021/06/16 01:15:27;;;;;;;4.10;2.90;;;;;;;;;;5116909;28;20483;-59
2021/06/16 01:17:56;;;;;;;6.47;3.40;;;;;;;;;;5117182;28;20468;-58
2021/06/16 01:20:26;;;;;;;7.63;3.90;;;;;;;;;;5117138;28;20445;-58
2021/06/16 01:23:01;;;;;;;11.20;4.10;;;;;;;;;;5117026;28;20494;-58
2021/06/16 01:25:29;;;;;;;4.73;3.20;;;;;;;;;;5117013;28;20430;-59
2021/06/16 01:27:58;;;;;;;7.47;3.90;;;;;;;;;;5116727;28;20589;-59
2021/06/16 01:30:26;;;;;;;7.77;4.10;;;;;;;;;;5116904;28;20441;-59
2021/06/16 01:32:53;;;;;;;6.13;3.57;;;;;;;;;;5116753;28;20549;-60
2021/06/16 01:35:21;;;;;;;4.93;3.70;;;;;;;;;;5116011;28;20445;-60
2021/06/16 01:37:48;;;;;;;5.53;3.90;;;;;;;;;;5116438;28;20907;-59
2021/06/16 01:40:16;;;;;;;8.83;3.80;;;;;;;;;;5117115;28;20502;-59
2021/06/16 01:42:44;;;;;;;6.03;3.40;;;;;;;;;;5116415;28;20810;-59
2021/06/16 01:45:13;;;;;;;8.07;3.47;;;;;;;;;;5116848;28;20445;-59
2021/06/16 01:47:43;;;;;;;4.07;3.33;;;;;;;;;;5116052;28;20964;-59
2021/06/16 01:50:12;;;;;;;4.50;3.63;;;;;;;;;;5116508;28;20847;-59
2021/06/16 01:52:39;;;;;;;8.30;3.77;;;;;;;;;;5116411;28;20496;-59
2021/06/16 01:55:08;;;;;;;6.93;4.10;;;;;;;;;;5116501;28;20449;-58
2021/06/16 01:57:37;;;;;;;7.20;4.13;;;;;;;;;;5116222;28;20457;-59
2021/06/16 02:00:06;;;;;;;11.30;3.73;;;;;;;;;;5115928;28;20437;-59
2021/06/16 02:02:35;;;;;;;5.73;3.57;;;;;;;;;;5116217;28;20449;-59
2021/06/16 02:05:02;;;;;;;5.60;3.90;;;;;;;;;;5116285;28;20437;-59
2021/06/16 02:07:31;;;;;;;6.87;4.67;;;;;;;;;;5116051;28;20461;-59
2021/06/16 02:09:59;;;;;;;7.20;4.77;;;;;;;;;;5115927;28;20519;-59
2021/06/16 02:12:27;;;;;;;5.10;4.00;;;;;;;;;;5116147;28;20437;-59
2021/06/16 02:14:56;;;;;;;7.23;3.90;;;;;;;;;;5116050;28;20477;-58
2021/06/16 02:17:25;;;;;;;9.30;3.90;;;;;;;;;;5116167;28;20457;-59
2021/06/16 02:19:54;;;;;;;6.13;3.70;;;;;;;;;;5116171;28;20441;-59
2021/06/16 02:22:21;;;;;;;12.33;4.87;;;;;;;;;;5115753;28;20446;-59
2021/06/16 02:24:49;;;;;;;6.07;4.60;;;;;;;;;;5115965;28;20445;-59
2021/06/16 02:27:16;;;;;;;5.30;4.77;;;;;;;;;;5115644;28;20977;-59
2021/06/16 02:29:43;;;;;;;5.57;4.00;;;;;;;;;;5115487;28;20921;-59
2021/06/16 02:32:11;;;;;;;5.33;3.90;;;;;;;;;;5115569;28;20467;-59
2021/06/16 02:34:38;;;;;;;5.90;4.30;;;;;;;;;;5115510;28;20558;-59
2021/06/16 02:37:08;;;;;;;5.03;3.80;;;;;;;;;;5115282;28;20549;-59
2021/06/16 02:39:37;;;;;;;5.70;3.53;;;;;;;;;;5115539;28;20449;-59
2021/06/16 02:42:05;;;;;;;9.23;4.70;;;;;;;;;;5115482;28;20854;-59
2021/06/16 02:44:33;;;;;;;7.20;4.20;;;;;;;;;;5115132;28;20472;-59
2021/06/16 02:47:00;;;;;;;10.40;4.23;;;;;;;;;;5114235;28;20465;-58
2021/06/16 02:49:31;;;;;;;8.50;3.57;;;;;;;;;;5115332;28;20477;-58
2021/06/16 02:51:59;;;;;;;8.00;3.93;;;;;;;;;;5114917;28;20969;-59
2021/06/16 02:54:28;;;;;;;5.50;3.93;;;;;;;;;;5114815;28;21121;-59
2021/06/16 02:56:55;;;;;;;6.43;4.60;;;;;;;;;;5114743;28;20537;-59
2021/06/16 02:59:24;;;;;;;7.30;4.70;;;;;;;;;;5115066;28;20445;-59
2021/06/16 03:01:51;;;;;;;8.50;5.03;;;;;;;;;;5114932;28;20453;-58
2021/06/16 03:04:20;;;;;;;5.00;3.90;;;;;;;;;;5114486;28;20494;-60
2021/06/16 03:06:47;;;;;;;5.10;3.80;;;;;;;;;;5114411;28;20462;-59
2021/06/16 03:09:15;;;;;;;7.33;3.80;;;;;;;;;;5114538;28;20444;-59
2021/06/16 03:11:44;;;;;;;4.23;3.83;;;;;;;;;;5114509;28;20449;-59
2021/06/16 03:14:11;;;;;;;7.83;4.20;;;;;;;;;;5114648;28;20477;-58
2021/06/16 03:16:38;;;;;;;7.10;4.30;;;;;;;;;;5114232;28;20502;-59
2021/06/16 03:19:06;;;;;;;10.17;4.70;;;;;;;;;;5114576;28;20490;-59
2021/06/16 03:21:35;;;;;;;5.47;4.27;;;;;;;;;;5114598;28;20843;-59
2021/06/16 03:24:02;;;;;;;7.00;4.67;;;;;;;;;;5114528;28;20480;-58
2021/06/16 03:26:30;;;;;;;7.67;4.50;;;;;;;;;;5115018;28;20487;-58
2021/06/16 03:28:59;;;;;;;6.77;4.50;;;;;;;;;;5114542;28;20449;-58
2021/06/16 03:31:26;;;;;;;5.03;4.60;;;;;;;;;;5114524;28;20445;-59
2021/06/16 03:33:54;;;;;;;6.80;3.90;;;;;;;;;;5114365;28;20477;-59
2021/06/16 03:36:22;;;;;;;6.47;4.10;;;;;;;;;;5114312;28;20448;-59
2021/06/16 03:38:51;;;;;;;6.70;4.30;;;;;;;;;;5114411;28;20453;-57
2021/06/16 03:41:18;;;;;;;6.87;3.60;;;;;;;;;;5114838;28;20924;-58
2021/06/16 03:43:47;;;;;;;9.30;4.40;;;;;;;;;;5114808;28;20449;-59
2021/06/16 03:46:16;;;;;;;7.10;4.40;;;;;;;;;;5114457;28;20802;-58
2021/06/16 03:48:46;;;;;;;6.87;4.80;;;;;;;;;;5114841;28;20458;-59
2021/06/16 03:51:13;;;;;;;5.77;4.33;;;;;;;;;;5114840;28;20453;-59
2021/06/16 03:53:41;;;;;;;6.57;4.27;;;;;;;;;;5114581;28;20482;-59
2021/06/16 03:56:08;;;;;;;4.73;3.50;;;;;;;;;;5114337;28;20445;-59
2021/06/16 03:58:36;;;;;;;6.63;4.40;;;;;;;;;;5113979;28;20551;-59
2021/06/16 04:01:04;;;;;;;9.20;3.90;;;;;;;;;;5113892;28;20600;-59
2021/06/16 04:03:33;;;;;;;3.77;3.37;;;;;;;;;;5114135;28;20446;-58
2021/06/16 04:08:14;;;;;;;8.80;3.57;;;;;;;;;;5178517;27;20531;-58
2021/06/16 04:10:45;;;;;;;11.73;4.00;;;;;;;;;;5173166;27;20503;-59
2021/06/16 04:13:12;;;;;;;6.60;3.13;;;;;;;;;;5173509;27;20784;-59
2021/06/16 04:15:40;;;;;;;5.77;2.97;;;;;;;;;;5173165;27;20443;-59
2021/06/16 04:18:07;;;;;;;7.33;3.57;;;;;;;;;;5173114;27;20455;-59
2021/06/16 04:20:35;;;;;;;6.63;3.20;;;;;;;;;;5172923;27;20850;-58
2021/06/16 04:23:02;;;;;;;3.80;3.00;;;;;;;;;;5173049;27;20449;-59
2021/06/16 04:25:31;;;;;;;9.27;3.70;;;;;;;;;;5173151;27;20449;-59
2021/06/16 04:27:58;;;;;;;4.93;3.40;;;;;;;;;;5172699;27;20899;-58
2021/06/16 04:30:26;;;;;;;8.03;3.33;;;;;;;;;;5172967;27;20502;-58
2021/06/16 04:32:53;;;;;;;5.60;3.73;;;;;;;;;;5173085;27;20449;-59
2021/06/16 04:35:21;;;;;;;7.07;3.23;;;;;;;;;;5172792;27;20989;-57
2021/06/16 04:37:48;;;;;;;5.43;3.90;;;;;;;;;;5170409;22;20832;-53
2021/06/16 04:40:16;;;;;;;8.57;3.67;;;;;;;;;;5130974;28;20513;-53
2021/06/16 04:42:44;;;;;;;6.87;3.30;;;;;;;;;;5131291;28;20452;-53
2021/06/16 04:45:12;;;;;;;5.30;3.17;;;;;;;;;;5131104;28;20497;-53
2021/06/16 04:47:39;;;;;;;4.33;3.20;;;;;;;;;;5130474;27;20533;-53
2021/06/16 04:50:08;;;;;;;3.20;2.90;;;;;;;;;;5130460;28;20445;-54
2021/06/16 04:52:36;;;;;;;4.97;3.17;;;;;;;;;;5130612;28;20957;-53
2021/06/16 04:55:03;;;;;;;4.10;2.90;;;;;;;;;;5130608;28;20455;-53
2021/06/16 04:57:30;;;;;;;6.20;3.50;;;;;;;;;;5130642;27;20465;-54
2021/06/16 04:59:59;;;;;;;9.47;4.07;;;;;;;;;;5130574;28;20442;-53
2021/06/16 05:02:26;;;;;;;8.87;3.40;;;;;;;;;;5130661;28;20511;-54
2021/06/16 05:04:53;;;;;;;5.90;3.60;;;;;;;;;;5130267;28;20864;-53
2021/06/16 05:07:21;;;;;;;6.63;3.57;;;;;;;;;;5130004;27;21042;-53
2021/06/16 05:09:48;;;;;;;7.07;3.17;;;;;;;;;;5130484;28;20444;-53
2021/06/16 05:12:16;;;;;;;4.47;3.00;;;;;;;;;;5130391;28;20444;-54
2021/06/16 05:14:43;;;;;;;5.67;3.40;;;;;;;;;;5130168;28;20445;-54
2021/06/16 05:17:11;;;;;;;6.50;3.70;;;;;;;;;;5129938;27;20997;-54
2021/06/16 05:19:39;;;;;;;6.80;3.50;;;;;;;;;;5116172;28;20439;-54
2021/06/16 05:22:07;;;;;;;10.27;3.33;;;;;;;;;;5117580;28;20441;-54
2021/06/16 05:24:35;;;;;;;8.10;3.43;;;;;;;;;;5116441;28;20473;-54
2021/06/16 05:27:02;;;;;;;7.33;3.60;;;;;;;;;;5115901;28;20596;-53
2021/06/16 05:29:29;;;;;;;7.80;3.30;;;;;;;;;;5116484;28;20448;-54
2021/06/16 05:31:57;;;;;;;5.10;3.07;;;;;;;;;;5116058;28;20452;-55
2021/06/16 05:34:25;;;;;;;4.20;3.30;;;;;;;;;;5116969;28;20443;-53
2021/06/16 05:36:53;;;;;;;5.07;3.20;;;;;;;;;;5116194;28;20836;-54
2021/06/16 05:39:20;;;;;;;5.10;3.63;;;;;;;;;;5115678;28;20515;-53
2021/06/16 05:41:48;;;;;;;4.13;2.90;;;;;;;;;;5115652;28;20473;-54
2021/06/16 05:44:16;;;;;;;10.37;4.23;;;;;;;;;;5116081;28;20547;-54
2021/06/16 05:46:43;;;;;;;7.33;3.50;;;;;;;;;;5116387;28;20488;-52
2021/06/16 05:49:10;;;;;;;5.90;3.93;;;;;;;;;;5116100;28;20452;-53
2021/06/16 05:51:39;;;;;;;6.30;3.93;;;;;;;;;;5116292;28;20833;-52
2021/06/16 05:54:09;;;;;;;4.60;3.50;;;;;;;;;;5116000;28;20470;-54
2021/06/16 05:56:37;;;;;;;7.00;3.70;;;;;;;;;;5115695;28;20481;-53
2021/06/16 05:59:04;;;;;;;6.57;4.00;;;;;;;;;;5115444;28;20540;-53
2021/06/16 06:01:31;;;;;;;8.10;4.00;;;;;;;;;;5115778;28;20495;-53
2021/06/16 06:03:58;;;;;;;8.07;4.50;;;;;;;;;;5115502;28;20444;-54
2021/06/16 06:06:27;;;;;;;7.10;4.00;;;;;;;;;;5115409;28;20503;-53
2021/06/16 06:08:56;;;;;;;8.03;3.27;;;;;;;;;;5115539;28;20471;-54
2021/06/16 06:11:23;;;;;;;8.40;3.87;;;;;;;;;;5115477;28;20447;-53
2021/06/16 06:13:50;;;;;;;5.70;3.30;;;;;;;;;;5115033;28;20448;-53
2021/06/16 06:16:18;;;;;;;5.40;3.30;;;;;;;;;;5115228;28;20448;-54
2021/06/16 06:18:45;;;;;;;3.93;2.93;;;;;;;;;;5115466;28;20706;-55
2021/06/16 06:21:12;;;;;;;9.47;4.43;;;;;;;;;;5115146;28;20459;-54
2021/06/16 06:23:39;;;;;;;16.57;4.73;;;;;;;;;;5114785;28;20444;-54
2021/06/16 06:26:08;;;;;;;5.20;3.80;;;;;;;;;;5115087;28;20444;-55
2021/06/16 06:28:36;;;;;;;5.43;4.07;;;;;;;;;;5114276;28;21074;-54
2021/06/16 06:31:03;;;;;;;6.77;3.83;;;;;;;;;;5113668;28;20543;-54
2021/06/16 06:33:30;;;;;;;6.80;3.43;;;;;;;;;;5114458;28;20444;-53
2021/06/16 06:35:58;;;;;;;6.07;3.50;;;;;;;;;;5114843;28;20444;-56
2021/06/16 06:38:25;;;;;;;8.53;3.87;;;;;;;;;;5114706;28;20926;-53
2021/06/16 06:40:52;;;;;;;7.93;3.67;;;;;;;;;;5114661;28;20458;-54
2021/06/16 06:43:21;;;;;;;4.73;3.73;;;;;;;;;;5114986;28;20486;-55
2021/06/16 06:45:48;;;;;;;6.77;3.23;;;;;;;;;;5114896;28;20434;-56
2021/06/16 06:48:15;;;;;;;7.23;4.00;;;;;;;;;;5115043;28;20485;-53
2021/06/16 06:50:43;;;;;;;7.83;3.87;;;;;;;;;;5114633;28;20443;-55
2021/06/16 06:53:10;;;;;;;7.60;4.30;;;;;;;;;;5114340;28;20501;-54
2021/06/16 06:55:37;;;;;;;7.67;3.67;;;;;;;;;;5114434;28;20943;-54
2021/06/16 06:58:05;;;;;;;7.73;4.47;;;;;;;;;;5114137;28;20542;-55
2021/06/16 07:00:33;;;;;;;6.40;4.70;;;;;;;;;;5114592;28;20446;-56
2021/06/16 07:03:01;;;;;;;5.60;3.83;;;;;;;;;;5113800;28;20440;-54
2021/06/16 07:05:28;;;;;;;5.20;3.90;;;;;;;;;;5114393;28;20451;-54
2021/06/16 07:07:55;;;;;;;6.70;4.23;;;;;;;;;;5114016;28;20673;-54
2021/06/16 07:10:22;;;;;;;4.70;4.17;;;;;;;;;;5113900;28;20510;-54
2021/06/16 07:12:50;;;;;;;5.90;3.33;;;;;;;;;;5113991;28;20505;-53
2021/06/16 07:15:17;;;;;;;6.97;3.97;;;;;;;;;;5114370;28;20448;-55
2021/06/16 07:17:46;;;;;;;8.47;5.83;;;;;;;;;;5114264;28;20463;-53
2021/06/16 07:20:16;;;;;;;8.07;3.90;;;;;;;;;;5114135;28;20446;-53
2021/06/16 07:22:43;;;;;;;9.97;4.00;;;;;;;;;;5114019;28;20430;-55
2021/06/16 07:25:11;;;;;;;5.80;3.70;;;;;;;;;;5113825;28;20448;-55
2021/06/16 07:27:38;;;;;;;8.27;4.20;;;;;;;;;;5114166;28;20477;-54
2021/06/16 07:30:06;;;;;;;8.87;3.80;;;;;;;;;;5113745;28;20436;-56
2021/06/16 07:32:34;;;;;;;10.37;4.60;;;;;;;;;;5114120;28;20440;-54
2021/06/16 07:35:02;;;;;;;7.27;3.47;;;;;;;;;;5113805;28;20447;-55
2021/06/16 07:37:29;;;;;;;5.93;3.30;;;;;;;;;;5113350;28;20548;-55
2021/06/16 07:39:57;;;;;;;9.20;3.23;;;;;;;;;;5113491;28;20901;-54
2021/06/16 07:42:25;;;;;;;8.23;3.83;;;;;;;;;;5112930;28;20440;-55
2021/06/16 07:44:52;;;;;;;4.90;3.30;;;;;;;;;;5113179;28;20452;-53
2021/06/16 07:47:20;;;;;;;9.50;4.00;;;;;;;;;;5113151;28;20479;-55
2021/06/16 07:49:48;;;;;;;4.90;3.07;;;;;;;;;;5113184;28;20452;-54
2021/06/16 07:52:16;;;;;;;7.47;3.73;;;;;;;;;;5113933;28;20444;-56
2021/06/16 07:54:43;;;;;;;5.33;3.40;;;;;;;;;;5113496;28;20441;-55
2021/06/16 07:57:11;;;;;;;5.23;3.03;;;;;;;;;;5113387;28;20464;-53
2021/06/16 07:59:38;;;;;;;6.33;3.27;;;;;;;;;;5113629;28;20862;-55
2021/06/16 08:02:05;;;;;;;5.97;3.17;;;;;;;;;;5112920;28;20443;-52
2021/06/16 08:04:37;;;;;;;4.80;3.20;;;;;;;;;;5113411;28;20475;-54
2021/06/16 08:07:04;;;;;;;6.47;4.17;;;;;;;;;;5112939;28;20524;-55
2021/06/16 08:09:33;;;;;;;4.00;3.30;;;;;;;;;;5113545;28;20448;-55
2021/06/16 08:12:00;;;;;;;6.33;4.37;;;;;;;;;;5113397;28;20564;-55
2021/06/16 08:14:28;;;;;;;5.87;3.60;;;;;;;;;;5113295;28;20456;-54
2021/06/16 08:16:55;;;;;;;6.17;3.27;;;;;;;;;;5113150;28;20519;-55
2021/06/16 08:19:22;;;;;;;5.80;3.37;;;;;;;;;;5112880;28;20434;-55
2021/06/16 08:21:49;;;;;;;4.83;3.23;;;;;;;;;;5113148;28;20524;-55
2021/06/16 08:24:17;;;;;;;5.53;3.50;;;;;;;;;;5113268;28;20516;-54
2021/06/16 08:26:45;;;;;;;4.10;3.00;;;;;;;;;;5112723;28;20931;-55
2021/06/16 08:29:13;;;;;;;6.53;3.70;;;;;;;;;;5112511;28;20821;-52
2021/06/16 08:31:40;;;;;;;6.57;4.67;;;;;;;;;;5112980;28;20560;-54
2021/06/16 08:34:07;;;;;;;6.17;3.80;;;;;;;;;;5112751;28;20798;-54
2021/06/16 08:36:35;;;;;;;6.10;3.97;;;;;;;;;;5112691;28;20453;-54
2021/06/16 08:39:03;;;;;;;7.23;3.90;;;;;;;;;;5112496;28;20472;-55
2021/06/16 08:41:30;;;;;;;7.33;4.33;;;;;;;;;;5112566;28;20446;-55
2021/06/16 08:44:00;;;;;;;8.83;3.90;;;;;;;;;;5112762;28;20435;-55
2021/06/16 08:46:27;;;;;;;6.40;4.47;;;;;;;;;;5112801;28;20614;-54
2021/06/16 08:48:55;;;;;;;4.83;4.27;;;;;;;;;;5112821;28;20566;-55
2021/06/16 08:51:22;;;;;;;6.60;4.10;;;;;;;;;;5113773;28;20852;-53
2021/06/16 08:53:49;;;;;;;5.60;4.87;;;;;;;;;;5114380;28;20444;-54
2021/06/16 08:56:17;;;;;;;6.43;4.10;;;;;;;;;;5116823;28;20444;-55
2021/06/16 08:58:44;;;;;;;6.00;4.40;;;;;;;;;;5116943;28;20809;-51
2021/06/16 09:01:13;;;;;;;4.30;3.90;;;;;;;;;;5116598;28;20505;-54
2021/06/16 09:03:40;;;;;;;9.03;5.10;;;;;;;;;;5116191;28;20961;-53
2021/06/16 09:06:09;;;;;;;5.80;4.23;;;;;;;;;;5117454;28;20448;-54
2021/06/16 09:08:51;;;;;;;5.47;4.80;;;;;;;;;;5116685;28;20886;-54
2021/06/16 09:11:18;;;;;;;5.13;4.73;;;;;;;;;;5116315;28;20508;-54
2021/06/16 09:13:46;;;;;;;8.50;4.30;;;;;;;;;;5116303;28;20445;-54
2021/06/16 09:16:27;;;;;;;5.30;4.10;;;;;;;;;;5116121;28;20444;-53
2021/06/16 09:18:54;;;;;;;7.30;4.20;;;;;;;;;;5116017;28;20916;-54
2021/06/16 09:21:35;;;;;;;8.63;5.87;;;;;;;;;;5115998;28;20787;-54
2021/06/16 09:24:02;;;;;;;5.80;4.80;;;;;;;;;;5116300;28;20444;-54
2021/06/16 09:26:33;;;;;;;7.63;5.10;;;;;;;;;;5116076;28;20448;-54
2021/06/16 09:29:01;;;;;;;6.00;5.20;;;;;;;;;;5116083;28;20481;-54
2021/06/16 09:31:38;;;;;;;7.93;5.37;;;;;;;;;;5116130;28;20469;-54
2021/06/16 09:34:10;;;;;;;7.87;4.87;;;;;;;;;;5117555;28;20515;-54
2021/06/16 09:36:47;;;;;;;9.20;5.20;;;;;;;;;;5116507;28;20995;-54
2021/06/16 09:39:14;;;;;;;9.77;5.10;;;;;;;;;;5115700;28;20457;-54
2021/06/16 09:41:52;;;;;;;7.07;5.20;;;;;;;;;;5115590;28;20455;-55
2021/06/16 09:44:34;;;;;;;7.93;5.20;;;;;;;;;;5115941;28;20437;-53
2021/06/16 09:47:13;;;;;;;6.33;4.73;;;;;;;;;;5115421;28;20816;-54
2021/06/16 09:49:47;;;;;;;5.60;4.10;;;;;;;;;;5115067;28;20471;-53
2021/06/16 09:52:27;;;;;;;6.13;3.97;;;;;;;;;;5115465;28;20988;-53
2021/06/16 09:54:54;;;;;;;6.27;5.07;;;;;;;;;;5115634;28;20422;-53
2021/06/16 09:57:21;;;;;;;9.73;5.63;;;;;;;;;;5115580;28;20524;-53
2021/06/16 09:59:49;;;;;;;7.50;5.17;;;;;;;;;;5115590;28;20454;-53
2021/06/16 10:02:18;;;;;;;4.87;4.47;;;;;;;;;;5115627;28;20447;-53
2021/06/16 10:04:47;;;;;;;8.70;4.90;;;;;;;;;;5115317;28;20523;-54
2021/06/16 10:07:15;;;;;;;5.80;4.50;;;;;;;;;;5115791;28;20563;-54
2021/06/16 10:09:48;;;;;;;6.50;5.57;;;;;;;;;;5114891;28;20480;-54
2021/06/16 10:12:16;;;;;;;7.90;5.97;;;;;;;;;;5114917;28;20464;-55
2021/06/16 10:14:43;;;;;;;6.97;5.33;;;;;;;;;;5115301;28;20527;-54
2021/06/16 10:17:10;;;;;;;8.77;5.37;;;;;;;;;;5115545;28;20464;-54
2021/06/16 10:19:39;;;;;;;9.93;7.50;;;;;;;;;;5115044;28;20436;-54
2021/06/16 10:22:07;;;;;;;13.87;8.47;;;;;;;;;;5114695;28;20519;-54
2021/06/16 10:24:34;;;;;;;19.00;16.50;;;;;;;;;;5114956;28;20493;-53
2021/06/16 10:27:02;;;;;;;9.97;7.90;;;;;;;;;;5114882;28;20447;-54
2021/06/16 10:29:32;;;;;;;10.97;9.47;;;;;;;;;;5114820;28;20483;-54
2021/06/16 10:32:04;;;;;;;10.00;6.43;;;;;;;;;;5114962;28;20448;-55
2021/06/16 10:34:46;;;;;;;7.17;6.43;;;;;;;;;;5114899;28;20433;-54
2021/06/16 10:37:13;;;;;;;6.53;5.93;;;;;;;;;;5126435;22;20476;31
2021/06/16 10:39:42;;;;;;;12.63;7.50;;;;;;;;;;5093746;28;21001;-58
2021/06/16 10:42:09;;;;;;;11.83;10.67;;;;;;;;;;5094639;28;20504;-59
2021/06/16 10:44:37;;;;;;;9.77;8.70;;;;;;;;;;5094175;28;20507;-59
2021/06/16 10:47:06;;;;;;;11.17;9.10;;;;;;;;;;5094656;28;20464;-59
2021/06/16 10:49:53;;;;;;;9.20;7.77;;;;;;;;;;5073928;28;20816;-59
2021/06/16 10:52:22;;;;;;;8.97;7.33;;;;;;;;;;5074053;28;20457;-59
2021/06/16 10:54:59;;;;;;;8.10;7.27;;;;;;;;;;5073790;28;20863;-60
2021/06/16 10:57:27;;;;;;;9.83;7.20;;;;;;;;;;5074289;28;20985;-60
2021/06/16 11:00:06;;;;;;;8.03;7.33;;;;;;;;;;5073728;28;20453;-61
2021/06/16 11:03:03;;;;;;;10.30;8.47;;;;;;;;;;5073602;28;20779;-59
2021/06/16 11:05:35;;;;;;;18.27;16.37;;;;;;;;;;5073795;28;20429;-58
2021/06/16 11:08:04;;;;;;;10.00;8.40;;;;;;;;;;5073778;28;20470;-60
2021/06/16 11:10:49;;;;;;;9.07;8.30;;;;;;;;;;5073865;28;20876;-60
2021/06/16 11:13:31;;;;;;;7.80;7.00;;;;;;;;;;5073716;28;20934;-60
2021/06/16 11:16:00;;;;;;;6.87;6.30;;;;;;;;;;5073427;28;20501;-60
2021/06/16 11:18:28;;;;;;;10.13;7.23;;;;;;;;;;5073520;28;20978;-60
2021/06/16 11:20:59;;;;;;;8.00;7.20;;;;;;;;;;5074754;28;20833;-59
2021/06/16 11:23:28;;;;;;;9.20;7.10;;;;;;;;;;5073717;28;20957;-60
2021/06/16 11:25:55;;;;;;;8.10;6.93;;;;;;;;;;5073950;28;20455;-60
2021/06/16 11:28:23;;;;;;;8.50;7.33;;;;;;;;;;5073985;28;20476;-59
2021/06/16 11:31:06;;;;;;;8.80;7.93;;;;;;;;;;5074941;28;20510;-60
2021/06/16 11:33:55;;;;;;;8.93;7.70;;;;;;;;;;5073662;28;20547;-60
2021/06/16 11:36:38;;;;;;;8.67;7.70;;;;;;;;;;5075088;28;20457;-61
2021/06/16 11:39:16;;;;;;;9.00;7.90;;;;;;;;;;5075361;28;20477;-59
2021/06/16 11:41:45;;;;;;;9.10;7.80;;;;;;;;;;5074589;28;20913;-60
2021/06/16 11:44:14;;;;;;;8.37;7.37;;;;;;;;;;5074183;28;20456;-59
2021/06/16 11:46:43;;;;;;;11.40;7.90;;;;;;;;;;5072824;28;20776;-60
2021/06/16 11:49:11;;;;;;;10.00;8.07;;;;;;;;;;5073118;28;20489;-60
2021/06/16 11:51:41;;;;;;;8.30;7.60;;;;;;;;;;5072948;28;20506;-59
2021/06/16 11:54:25;;;;;;;8.10;7.30;;;;;;;;;;5073804;28;20532;-59
2021/06/16 11:56:57;;;;;;;8.33;7.50;;;;;;;;;;5073548;28;20426;-59
2021/06/16 11:59:34;;;;;;;10.90;7.47;;;;;;;;;;5073610;28;20460;-59
2021/06/16 12:02:09;;;;;;;10.57;8.07;;;;;;;;;;5073719;28;20887;-60
2021/06/16 12:04:50;;;;;;;7.93;6.93;;;;;;;;;;5074214;28;20936;-59
2021/06/16 12:07:23;;;;;;;10.00;7.43;;;;;;;;;;5072773;28;20448;-61
2021/06/16 12:09:51;;;;;;;8.93;7.20;;;;;;;;;;5072934;28;20577;-61
2021/06/16 12:12:18;;;;;;;8.00;6.60;;;;;;;;;;5073119;28;20817;-60
2021/06/16 12:14:45;;;;;;;14.77;8.20;;;;;;;;;;5073343;28;20447;-59
2021/06/16 12:17:13;;;;;;;10.10;8.10;;;;;;;;;;5075843;28;20464;-60
2021/06/16 12:19:40;;;;;;;7.70;7.00;;;;;;;;;;5075536;28;20449;-60
2021/06/16 12:22:09;;;;;;;8.33;7.47;;;;;;;;;;5073825;28;20864;-60
2021/06/16 12:24:38;;;;;;;10.37;8.07;;;;;;;;;;5075187;28;20862;-59
2021/06/16 12:27:09;;;;;;;7.90;7.20;;;;;;;;;;5075041;28;20449;-62
2021/06/16 12:29:37;;;;;;;9.73;8.40;;;;;;;;;;5076699;28;20469;-60
2021/06/16 12:32:06;;;;;;;8.70;7.70;;;;;;;;;;5077465;28;20446;-59
2021/06/16 12:34:40;;;;;;;8.17;7.37;;;;;;;;;;5077220;28;20450;-59
2021/06/16 12:37:12;;;;;;;7.73;6.93;;;;;;;;;;5077199;28;20619;-60
2021/06/16 12:39:58;;;;;;;8.33;7.40;;;;;;;;;;5077320;28;20811;-58
2021/06/16 12:42:35;;;;;;;9.17;6.70;;;;;;;;;;5077192;28;20472;-60
2021/06/16 12:45:03;;;;;;;8.50;7.60;;;;;;;;;;5077194;28;20482;-60
2021/06/16 12:47:32;;;;;;;8.30;7.43;;;;;;;;;;5077390;28;20466;-60
2021/06/16 12:50:00;;;;;;;7.70;7.00;;;;;;;;;;5077303;28;20512;-60
2021/06/16 12:52:35;;;;;;;8.27;7.50;;;;;;;;;;5076917;28;20457;-59
2021/06/16 12:55:13;;;;;;;8.43;7.17;;;;;;;;;;5077241;28;20444;-59
2021/06/16 12:57:46;;;;;;;9.40;7.40;;;;;;;;;;5076241;28;20472;-59
2021/06/16 13:00:14;;;;;;;10.27;7.03;;;;;;;;;;5077051;28;20480;-60
2021/06/16 13:02:42;;;;;;;7.50;6.77;;;;;;;;;;5076733;28;20446;-59
2021/06/16 13:05:10;;;;;;;9.20;7.30;;;;;;;;;;5076222;28;20501;-59
2021/06/16 13:07:41;;;;;;;7.83;7.00;;;;;;;;;;5076442;28;20484;-60
2021/06/16 13:10:09;;;;;;;7.97;7.17;;;;;;;;;;5077083;28;20526;-59
2021/06/16 13:12:38;;;;;;;6.80;6.30;;;;;;;;;;5077726;28;20515;-60
2021/06/16 13:15:07;;;;;;;7.20;6.63;;;;;;;;;;5077377;28;20513;-60
2021/06/16 13:17:44;;;;;;;8.27;6.60;;;;;;;;;;5077278;28;20525;-60
2021/06/16 13:20:13;;;;;;;7.30;6.40;;;;;;;;;;5076017;28;20448;-60
2021/06/16 13:22:42;;;;;;;8.10;7.30;;;;;;;;;;5075761;28;20492;-59
2021/06/16 13:25:10;;;;;;;8.97;7.70;;;;;;;;;;5076121;28;20473;-61
2021/06/16 13:27:48;;;;;;;7.53;6.93;;;;;;;;;;5076012;28;20515;-60
2021/06/16 13:30:16;;;;;;;9.17;6.93;;;;;;;;;;5075939;28;20480;-60
2021/06/16 13:32:43;;;;;;;8.73;7.60;;;;;;;;;;5075655;28;20446;-60
2021/06/16 13:35:11;;;;;;;7.43;6.83;;;;;;;;;;5075731;28;20445;-61
2021/06/16 13:37:38;;;;;;;7.93;7.13;;;;;;;;;;5075294;28;20987;-60
2021/06/16 13:40:06;;;;;;;8.30;7.50;;;;;;;;;;5075005;28;20979;-59
2021/06/16 13:42:33;;;;;;;7.70;6.87;;;;;;;;;;5075741;28;20449;-60
2021/06/16 13:45:02;;;;;;;7.97;7.30;;;;;;;;;;5076082;28;20457;-60
2021/06/16 13:47:29;;;;;;;9.17;8.27;;;;;;;;;;5076184;28;20818;-59
2021/06/16 13:49:56;;;;;;;10.43;7.57;;;;;;;;;;5076332;28;20481;-60
2021/06/16 13:52:23;;;;;;;8.87;8.00;;;;;;;;;;5076113;28;20559;-60
2021/06/16 13:54:51;;;;;;;9.00;8.30;;;;;;;;;;5075743;28;20442;-59
2021/06/16 13:57:18;;;;;;;10.23;8.17;;;;;;;;;;5075312;28;20467;-59
2021/06/16 13:59:46;;;;;;;10.30;8.97;;;;;;;;;;5075405;28;20869;-60
2021/06/16 14:02:15;;;;;;;10.20;8.80;;;;;;;;;;5075645;28;20445;-60
2021/06/16 14:04:42;;;;;;;9.50;8.50;;;;;;;;;;5075573;28;20488;-60
2021/06/16 14:07:10;;;;;;;9.07;8.03;;;;;;;;;;5075117;28;20446;-59
2021/06/16 14:09:37;;;;;;;8.57;7.83;;;;;;;;;;5074654;28;20485;-59
2021/06/16 14:12:04;;;;;;;9.50;8.60;;;;;;;;;;5074373;28;20462;-60
2021/06/16 14:14:32;;;;;;;9.00;7.80;;;;;;;;;;5074721;28;20449;-61
2021/06/16 14:16:59;;;;;;;9.27;8.47;;;;;;;;;;5074622;28;20455;-61
2021/06/16 14:19:28;;;;;;;10.90;9.50;;;;;;;;;;5074625;28;20522;-60
2021/06/16 14:21:55;;;;;;;11.07;8.40;;;;;;;;;;5074279;28;20449;-60
2021/06/16 14:24:22;;;;;;;10.83;9.03;;;;;;;;;;5074691;28;20496;-61
2021/06/16 14:26:49;;;;;;;9.10;8.30;;;;;;;;;;5074241;28;20449;-61
2021/06/16 14:29:17;;;;;;;8.60;7.80;;;;;;;;;;5074122;28;20454;-60
2021/06/16 14:31:44;;;;;;;10.37;8.03;;;;;;;;;;5074093;28;20449;-60
2021/06/16 14:34:11;;;;;;;9.33;8.43;;;;;;;;;;5074205;28;20446;-59
2021/06/16 14:36:40;;;;;;;8.83;7.93;;;;;;;;;;5074368;28;20445;-60
2021/06/16 14:39:07;;;;;;;9.40;8.50;;;;;;;;;;5073831;28;20473;-60
2021/06/16 14:41:34;;;;;;;8.90;8.10;;;;;;;;;;5074398;28;20441;-60
2021/06/16 14:44:02;;;;;;;8.50;7.57;;;;;;;;;;5074270;28;20495;-60
2021/06/16 14:46:29;;;;;;;8.67;7.87;;;;;;;;;;5074437;28;20449;-61
2021/06/16 14:48:56;;;;;;;9.60;8.23;;;;;;;;;;5073838;28;20989;-60
2021/06/16 14:51:23;;;;;;;8.40;7.60;;;;;;;;;;5072823;28;20478;-61
2021/06/16 14:53:52;;;;;;;9.10;8.33;;;;;;;;;;5074219;28;20444;-61